Wetterdaten: Donnerstag / Freitag, 27.08.2010
Datum Zeit Temp. A. Feuchte A. Luftdruck Regen Wind Richtung Richtung Sonnenschein UV Solar Windben
26.08.2010 20:00 20,5 C 82 % 1004,9 hPa 0,0 mm 1,6 km/h (1 Bft) W-SW 247 0 min 0 UV-I 11 W/m 6,4 km/h (2 Bft)
26.08.2010 20:10 20,4 C 82 % 1005,1 hPa 0,0 mm 1,6 km/h (1 Bft) SW 225 0 min 0 UV-I 7 W/m 9,7 km/h (2 Bft)
26.08.2010 20:20 20,4 C 83 % 1005,1 hPa 0,0 mm 3,2 km/h (1 Bft) SW 225 0 min 0 UV-I 0 W/m 11,3 km/h (2 Bft)
26.08.2010 20:30 20,3 C 83 % 1005,1 hPa 0,0 mm 1,6 km/h (1 Bft) S-SW 202 0 min 0 UV-I 0 W/m 9,7 km/h (2 Bft)
26.08.2010 20:40 20,3 C 83 % 1004,9 hPa 0,0 mm 1,6 km/h (1 Bft) S-SW 202 0 min 0 UV-I 0 W/m 8,0 km/h (2 Bft)
26.08.2010 20:50 20,2 C 83 % 1004,9 hPa 0,0 mm 1,6 km/h (1 Bft) SW 225 0 min 0 UV-I 0 W/m 9,7 km/h (2 Bft)
26.08.2010 21:00 20,2 C 83 % 1004,9 hPa 0,0 mm 0,0 km/h (0 Bft) SW 225 0 min 0 UV-I 0 W/m 4,8 km/h (1 Bft)
26.08.2010 21:10 20,2 C 83 % 1004,9 hPa 0,0 mm 0,0 km/h (0 Bft) W-SW 247 0 min 0 UV-I 0 W/m 3,2 km/h (1 Bft)
26.08.2010 21:20 20,2 C 83 % 1005,1 hPa 0,0 mm 0,3 km/h (0 Bft) W-SW 245 0 min 0 UV-I 0 W/m 1,6 km/h (1 Bft)
26.08.2010 21:30 19,9 C 85 % 1005,1 hPa 0,0 mm 0,7 km/h (0 Bft) N-NO 15 0 min 0 UV-I 0 W/m 6,4 km/h (2 Bft)
26.08.2010 21:40 19,5 C 86 % 1005,0 hPa 0,0 mm 0,0 km/h (0 Bft) N-NO 15 0 min 0 UV-I 0 W/m 0,0 km/h (0 Bft)
26.08.2010 21:50 19,3 C 87 % 1004,8 hPa 0,0 mm 1,3 km/h (1 Bft) N-NO 24 0 min 0 UV-I 0 W/m 8,0 km/h (2 Bft)
26.08.2010 22:00 19,1 C 87 % 1004,0 hPa 0,0 mm 0,3 km/h (0 Bft) N-NO 24 0 min 0 UV-I 0 W/m 3,2 km/h (1 Bft)
26.08.2010 22:10 18,8 C 88 % 1004,0 hPa 0,0 mm 0,3 km/h (0 Bft) N-NO 24 0 min 0 UV-I 0 W/m 3,2 km/h (1 Bft)
26.08.2010 22:20 18,7 C 89 % 1003,7 hPa 0,0 mm 0,4 km/h (0 Bft) N-NO 24 0 min 0 UV-I 0 W/m 4,8 km/h (1 Bft)
26.08.2010 22:30 18,5 C 89 % 1003,8 hPa 0,0 mm 1,5 km/h (1 Bft) O 95 0 min 0 UV-I 0 W/m 6,4 km/h (2 Bft)
26.08.2010 22:40 18,4 C 90 % 1003,9 hPa 0,0 mm 0,0 km/h (0 Bft) O 90 0 min 0 UV-I 0 W/m 3,2 km/h (1 Bft)
26.08.2010 22:50 18,3 C 90 % 1003,8 hPa 0,0 mm 0,0 km/h (0 Bft) O 90 0 min 0 UV-I 0 W/m 4,8 km/h (1 Bft)
26.08.2010 23:00 18,3 C 90 % 1003,8 hPa 0,0 mm 0,0 km/h (0 Bft) O 90 0 min 0 UV-I 0 W/m 1,6 km/h (1 Bft)
26.08.2010 23:10 18,2 C 90 % 1003,6 hPa 0,0 mm 0,0 km/h (0 Bft) O 90 0 min 0 UV-I 0 W/m 4,8 km/h (1 Bft)
26.08.2010 23:20 18,2 C 90 % 1003,1 hPa 0,0 mm 0,0 km/h (0 Bft) O 90 0 min 0 UV-I 0 W/m 4,8 km/h (1 Bft)
26.08.2010 23:30 18,2 C 91 % 1002,5 hPa 0,0 mm 1,6 km/h (1 Bft) O 90 0 min 0 UV-I 0 W/m 4,8 km/h (1 Bft)
26.08.2010 23:40 18,0 C 91 % 1002,4 hPa 0,0 mm 1,6 km/h (1 Bft) O 90 0 min 0 UV-I 0 W/m 6,4 km/h (2 Bft)
26.08.2010 23:50 17,9 C 91 % 1002,2 hPa 0,0 mm 0,0 km/h (0 Bft) O 90 0 min 0 UV-I 0 W/m 1,6 km/h (1 Bft)
27.08.2010 00:00 17,8 C 91 % 1002,1 hPa 0,0 mm 0,0 km/h (0 Bft) O 90 0 min 0 UV-I 0 W/m 3,2 km/h (1 Bft)
27.08.2010 00:10 17,8 C 92 % 1002,0 hPa 0,0 mm 0,0 km/h (0 Bft) N 0 0 min 0 UV-I 0 W/m 0,0 km/h (0 Bft)
27.08.2010 00:20 17,8 C 92 % 1002,0 hPa 0,0 mm 0,0 km/h (0 Bft) N 0 0 min 0 UV-I 0 W/m 0,0 km/h (0 Bft)
27.08.2010 00:30 17,8 C 92 % 1002,0 hPa 0,0 mm 0,0 km/h (0 Bft) N 0 0 min 0 UV-I 0 W/m 0,0 km/h (0 Bft)
27.08.2010 00:40 17,8 C 92 % 1002,0 hPa 0,0 mm 0,0 km/h (0 Bft) O 90 0 min 0 UV-I 0 W/m 3,2 km/h (1 Bft)
27.08.2010 00:50 17,8 C 92 % 1001,9 hPa 0,0 mm 0,0 km/h (0 Bft) N 0 0 min 0 UV-I 0 W/m 0,0 km/h (0 Bft)
27.08.2010 01:00 17,8 C 92 % 1001,8 hPa 0,0 mm 0,0 km/h (0 Bft) N 0 0 min 0 UV-I 0 W/m 0,0 km/h (0 Bft)
27.08.2010 01:10 17,8 C 93 % 1001,7 hPa 0,0 mm 0,0 km/h (0 Bft) N 0 0 min 0 UV-I 0 W/m 0,0 km/h (0 Bft)
27.08.2010 01:20 17,9 C 93 % 1001,6 hPa 0,0 mm 0,0 km/h (0 Bft) O 90 0 min 0 UV-I 0 W/m 3,2 km/h (1 Bft)
27.08.2010 01:30 17,9 C 93 % 1001,3 hPa 0,3 mm 0,0 km/h (0 Bft) O 90 0 min 0 UV-I 0 W/m 1,6 km/h (1 Bft)
27.08.2010 01:40 18,0 C 93 % 1001,0 hPa 0,0 mm 0,0 km/h (0 Bft) O 90 0 min 0 UV-I 0 W/m 3,2 km/h (1 Bft)
27.08.2010 01:50 18,0 C 93 % 1000,6 hPa 0,0 mm 0,0 km/h (0 Bft) O 90 0 min 0 UV-I 0 W/m 1,6 km/h (1 Bft)
27.08.2010 02:00 18,0 C 93 % 1000,2 hPa 0,0 mm 0,0 km/h (0 Bft) O 90 0 min 0 UV-I 0 W/m 1,6 km/h (1 Bft)
27.08.2010 02:10 18,0 C 93 % 1000,0 hPa 0,0 mm 0,0 km/h (0 Bft) O 90 0 min 0 UV-I 0 W/m 1,6 km/h (1 Bft)
27.08.2010 02:20 18,0 C 93 % 999,9 hPa 0,3 mm 0,0 km/h (0 Bft) O 90 0 min 0 UV-I 0 W/m 1,6 km/h (1 Bft)
27.08.2010 02:30 18,1 C 93 % 999,9 hPa 0,0 mm 0,0 km/h (0 Bft) O 90 0 min 0 UV-I 0 W/m 1,6 km/h (1 Bft)
27.08.2010 02:40 18,0 C 93 % 999,7 hPa 0,0 mm 0,0 km/h (0 Bft) O 90 0 min 0 UV-I 0 W/m 4,8 km/h (1 Bft)
27.08.2010 02:50 18,0 C 93 % 999,7 hPa 0,0 mm 0,0 km/h (0 Bft) O 90 0 min 0 UV-I 0 W/m 3,2 km/h (1 Bft)
27.08.2010 03:00 18,1 C 93 % 999,6 hPa 0,3 mm 0,0 km/h (0 Bft) O-SO 112 0 min 0 UV-I 0 W/m 3,2 km/h (1 Bft)
27.08.2010 03:10 18,2 C 93 % 999,7 hPa 0,0 mm 0,0 km/h (0 Bft) S-SO 157 0 min 0 UV-I 0 W/m 4,8 km/h (1 Bft)
27.08.2010 03:20 18,2 C 93 % 999,4 hPa 0,0 mm 0,0 km/h (0 Bft) S-SO 157 0 min 0 UV-I 0 W/m 3,2 km/h (1 Bft)
27.08.2010 03:30 18,2 C 93 % 999,5 hPa 0,0 mm 0,0 km/h (0 Bft) N 0 0 min 0 UV-I 0 W/m 0,0 km/h (0 Bft)
27.08.2010 03:40 18,3 C 93 % 999,0 hPa 0,0 mm 0,0 km/h (0 Bft) S-SO 157 0 min 0 UV-I 0 W/m 1,6 km/h (1 Bft)
27.08.2010 03:50 18,3 C 93 % 999,0 hPa 0,0 mm 0,0 km/h (0 Bft) S-SO 157 0 min 0 UV-I 0 W/m 3,2 km/h (1 Bft)
27.08.2010 04:00 18,3 C 93 % 999,2 hPa 3,0 mm 3,2 km/h (1 Bft) NW 315 0 min 0 UV-I 0 W/m 19,3 km/h (3 Bft)
27.08.2010 04:10 18,1 C 93 % 999,0 hPa 1,8 mm 4,8 km/h (1 Bft) W-NW 292 0 min 0 UV-I 0 W/m 14,5 km/h (3 Bft)
27.08.2010 04:20 17,8 C 93 % 999,0 hPa 0,5 mm 1,6 km/h (1 Bft) W-NW 292 0 min 0 UV-I 0 W/m 8,0 km/h (2 Bft)
27.08.2010 04:30 17,6 C 93 % 998,9 hPa 1,3 mm 3,2 km/h (1 Bft) NW 315 0 min 0 UV-I 0 W/m 11,3 km/h (2 Bft)
27.08.2010 04:40 17,3 C 93 % 999,1 hPa 1,8 mm 0,0 km/h (0 Bft) N 360 0 min 0 UV-I 0 W/m 3,2 km/h (1 Bft)
27.08.2010 04:50 17,2 C 93 % 999,0 hPa 0,8 mm 0,0 km/h (0 Bft) N 0 0 min 0 UV-I 0 W/m 0,0 km/h (0 Bft)
27.08.2010 05:00 17,2 C 93 % 999,1 hPa 0,0 mm 0,0 km/h (0 Bft) N 360 0 min 0 UV-I 0 W/m 1,6 km/h (1 Bft)
27.08.2010 05:10 17,2 C 93 % 999,1 hPa 0,0 mm 0,0 km/h (0 Bft) N 0 0 min 0 UV-I 0 W/m 0,0 km/h (0 Bft)
27.08.2010 05:20 17,2 C 93 % 999,0 hPa 0,0 mm 0,0 km/h (0 Bft) N 360 0 min 0 UV-I 0 W/m 3,2 km/h (1 Bft)
27.08.2010 05:30 17,2 C 94 % 998,8 hPa 0,5 mm 0,0 km/h (0 Bft) N 0 0 min 0 UV-I 0 W/m 0,0 km/h (0 Bft)
27.08.2010 05:40 17,2 C 94 % 999,0 hPa 0,0 mm 0,0 km/h (0 Bft) N 0 0 min 0 UV-I 0 W/m 0,0 km/h (0 Bft)
27.08.2010 05:50 17,2 C 94 % 999,1 hPa 1,3 mm 0,0 km/h (0 Bft) N 360 0 min 0 UV-I 0 W/m 1,6 km/h (1 Bft)
27.08.2010 06:00 17,1 C 94 % 998,9 hPa 1,0 mm 0,0 km/h (0 Bft) NW 315 0 min 0 UV-I 0 W/m 4,8 km/h (1 Bft)
27.08.2010 06:10 17,1 C 94 % 998,7 hPa 0,5 mm 0,0 km/h (0 Bft) N 0 0 min 0 UV-I 0 W/m 0,0 km/h (0 Bft)
27.08.2010 06:20 17,0 C 94 % 998,8 hPa 0,3 mm 0,0 km/h (0 Bft) NW 315 0 min 0 UV-I 0 W/m 3,2 km/h (1 Bft)
27.08.2010 06:30 16,9 C 94 % 998,8 hPa 0,3 mm 0,0 km/h (0 Bft) NW 315 0 min 0 UV-I 0 W/m 3,2 km/h (1 Bft)
27.08.2010 06:40 16,9 C 94 % 998,8 hPa 0,3 mm 0,0 km/h (0 Bft) N 0 0 min 0 UV-I 0 W/m 0,0 km/h (0 Bft)
27.08.2010 06:50 16,9 C 94 % 998,7 hPa 0,0 mm 0,0 km/h (0 Bft) N 0 0 min 0 UV-I 0 W/m 0,0 km/h (0 Bft)
27.08.2010 07:00 16,9 C 94 % 998,8 hPa 0,5 mm 0,0 km/h (0 Bft) NW 315 0 min 0 UV-I 0 W/m 1,6 km/h (1 Bft)
27.08.2010 07:10 16,9 C 94 % 998,8 hPa 0,3 mm 0,0 km/h (0 Bft) W-NW 292 0 min 0 UV-I 0 W/m 1,6 km/h (1 Bft)
27.08.2010 07:20 16,9 C 94 % 998,9 hPa 0,3 mm 0,0 km/h (0 Bft) W-NW 292 0 min 0 UV-I 7 W/m 1,6 km/h (1 Bft)
27.08.2010 07:30 16,9 C 94 % 999,0 hPa 0,3 mm 0,0 km/h (0 Bft) W-NW 292 0 min 0 UV-I 11 W/m 3,2 km/h (1 Bft)
27.08.2010 07:40 16,9 C 94 % 999,0 hPa 0,0 mm 0,0 km/h (0 Bft) W 270 0 min 0 UV-I 14 W/m 1,6 km/h (1 Bft)
27.08.2010 07:50 16,9 C 94 % 998,9 hPa 0,3 mm 0,0 km/h (0 Bft) SW 225 0 min 0 UV-I 23 W/m 4,8 km/h (1 Bft)
27.08.2010 08:00 16,9 C 94 % 999,3 hPa 0,5 mm 1,6 km/h (1 Bft) W-SW 247 0 min 0 UV-I 16 W/m 8,0 km/h (2 Bft)
27.08.2010 08:10 16,9 C 94 % 999,1 hPa 1,0 mm 0,0 km/h (0 Bft) W-SW 247 0 min 0 UV-I 23 W/m 4,8 km/h (1 Bft)
27.08.2010 08:20 16,9 C 94 % 999,3 hPa 0,3 mm 0,0 km/h (0 Bft) SW 225 0 min 0 UV-I 49 W/m 4,8 km/h (1 Bft)
27.08.2010 08:30 17,0 C 94 % 999,6 hPa 0,0 mm 1,6 km/h (1 Bft) W-SW 247 0 min 0 UV-I 49 W/m 6,4 km/h (2 Bft)
27.08.2010 08:40 17,1 C 94 % 999,6 hPa 0,0 mm 1,6 km/h (1 Bft) W-SW 247 0 min 1 UV-I 65 W/m 9,7 km/h (2 Bft)
27.08.2010 08:50 17,2 C 95 % 999,5 hPa 0,0 mm 1,6 km/h (1 Bft) SW 225 0 min 1 UV-I 60 W/m 8,0 km/h (2 Bft)
27.08.2010 09:00 17,2 C 95 % 999,6 hPa 0,0 mm 1,6 km/h (1 Bft) W-SW 247 0 min 0 UV-I 56 W/m 9,7 km/h (2 Bft)
27.08.2010 09:10 17,3 C 95 % 999,7 hPa 0,0 mm 1,6 km/h (1 Bft) W-SW 247 0 min 1 UV-I 93 W/m 9,7 km/h (2 Bft)
27.08.2010 09:20 17,3 C 95 % 999,8 hPa 0,3 mm 4,8 km/h (1 Bft) W 270 0 min 1 UV-I 121 W/m 14,5 km/h (3 Bft)
27.08.2010 09:30 17,5 C 95 % 999,7 hPa 0,0 mm 1,6 km/h (1 Bft) W 270 0 min 1 UV-I 229 W/m 9,7 km/h (2 Bft)
27.08.2010 09:40 17,7 C 94 % 999,7 hPa 0,0 mm 3,2 km/h (1 Bft) W-SW 247 0 min 1 UV-I 167 W/m 16,1 km/h (3 Bft)
27.08.2010 09:50 17,8 C 95 % 999,9 hPa 0,0 mm 3,2 km/h (1 Bft) W-SW 247 0 min 1 UV-I 179 W/m 11,3 km/h (2 Bft)
27.08.2010 10:00 17,9 C 94 % 999,8 hPa 0,0 mm 3,2 km/h (1 Bft) SW 225 0 min 1 UV-I 107 W/m 14,5 km/h (3 Bft)
27.08.2010 10:10 17,8 C 94 % 1000,0 hPa 0,0 mm 4,8 km/h (1 Bft) W-SW 247 0 min 1 UV-I 127 W/m 16,1 km/h (3 Bft)
27.08.2010 10:20 17,8 C 94 % 999,9 hPa 0,0 mm 3,2 km/h (1 Bft) W 270 0 min 1 UV-I 58 W/m 16,1 km/h (3 Bft)
27.08.2010 10:30 17,8 C 94 % 1000,0 hPa 0,0 mm 3,2 km/h (1 Bft) W-SW 247 0 min 2 UV-I 309 W/m 11,3 km/h (2 Bft)
27.08.2010 10:40 18,3 C 93 % 999,9 hPa 0,0 mm 1,6 km/h (1 Bft) W-SW 247 0 min 2 UV-I 322 W/m 8,0 km/h (2 Bft)
27.08.2010 10:50 18,5 C 92 % 1000,0 hPa 0,0 mm 4,8 km/h (1 Bft) SW 225 0 min 2 UV-I 202 W/m 19,3 km/h (3 Bft)
27.08.2010 11:00 18,5 C 91 % 999,9 hPa 0,0 mm 6,4 km/h (2 Bft) W-SW 247 0 min 2 UV-I 199 W/m 19,3 km/h (3 Bft)
27.08.2010 11:10 18,6 C 89 % 999,8 hPa 0,0 mm 4,8 km/h (1 Bft) W 270 0 min 2 UV-I 274 W/m 14,5 km/h (3 Bft)
27.08.2010 11:20 19,0 C 88 % 999,7 hPa 0,0 mm 3,2 km/h (1 Bft) SW 225 0 min 2 UV-I 241 W/m 12,9 km/h (3 Bft)
27.08.2010 11:30 19,1 C 87 % 999,6 hPa 0,0 mm 4,8 km/h (1 Bft) W-SW 247 0 min 2 UV-I 225 W/m 14,5 km/h (3 Bft)
27.08.2010 11:40 19,2 C 86 % 999,7 hPa 0,0 mm 4,8 km/h (1 Bft) W 270 0 min 2 UV-I 223 W/m 16,1 km/h (3 Bft)
27.08.2010 11:50 19,2 C 86 % 999,8 hPa 0,0 mm 4,8 km/h (1 Bft) W-SW 247 0 min 2 UV-I 185 W/m 12,9 km/h (3 Bft)
27.08.2010 12:00 19,1 C 86 % 999,9 hPa 0,0 mm 3,2 km/h (1 Bft) W-SW 247 0 min 1 UV-I 107 W/m 9,7 km/h (2 Bft)
27.08.2010 12:10 18,9 C 87 % 999,8 hPa 0,0 mm 1,6 km/h (1 Bft) W 270 0 min 0 UV-I 44 W/m 8,0 km/h (2 Bft)
27.08.2010 12:20 18,8 C 88 % 999,9 hPa 0,0 mm 3,2 km/h (1 Bft) S-SW 202 0 min 1 UV-I 60 W/m 11,3 km/h (2 Bft)
27.08.2010 12:30 18,5 C 89 % 1000,1 hPa 0,3 mm 4,8 km/h (1 Bft) S-SW 202 0 min 1 UV-I 83 W/m 9,7 km/h (2 Bft)
27.08.2010 12:40 17,9 C 90 % 1000,0 hPa 0,0 mm 3,2 km/h (1 Bft) SW 225 0 min 1 UV-I 93 W/m 9,7 km/h (2 Bft)
27.08.2010 12:50 17,6 C 91 % 1000,0 hPa 0,3 mm 4,8 km/h (1 Bft) W-SW 247 0 min 0 UV-I 53 W/m 16,1 km/h (3 Bft)
27.08.2010 13:00 17,4 C 91 % 1000,1 hPa 0,0 mm 4,8 km/h (1 Bft) W 270 0 min 1 UV-I 70 W/m 17,7 km/h (3 Bft)
27.08.2010 13:10 17,3 C 92 % 1000,1 hPa 0,0 mm 3,2 km/h (1 Bft) W 270 0 min 1 UV-I 128 W/m 14,5 km/h (3 Bft)
27.08.2010 13:20 17,5 C 92 % 1000,1 hPa 0,0 mm 3,2 km/h (1 Bft) O 90 0 min 1 UV-I 113 W/m 9,7 km/h (2 Bft)
27.08.2010 13:30 17,6 C 92 % 1000,1 hPa 0,3 mm 1,6 km/h (1 Bft) W-SW 247 0 min 1 UV-I 134 W/m 9,7 km/h (2 Bft)
27.08.2010 13:40 17,6 C 92 % 1000,0 hPa 0,0 mm 1,6 km/h (1 Bft) SW 225 0 min 1 UV-I 100 W/m 11,3 km/h (2 Bft)
27.08.2010 13:50 17,6 C 93 % 1000,1 hPa 0,0 mm 1,6 km/h (1 Bft) W 270 0 min 1 UV-I 86 W/m 6,4 km/h (2 Bft)
27.08.2010 14:00 17,8 C 92 % 1000,1 hPa 0,0 mm 1,6 km/h (1 Bft) W-SW 247 0 min 1 UV-I 76 W/m 9,7 km/h (2 Bft)
27.08.2010 14:10 17,8 C 92 % 1000,0 hPa 0,0 mm 3,2 km/h (1 Bft) S-SW 202 0 min 2 UV-I 197 W/m 8,0 km/h (2 Bft)
27.08.2010 14:20 18,1 C 92 % 1000,0 hPa 0,0 mm 4,8 km/h (1 Bft) W 270 0 min 2 UV-I 274 W/m 17,7 km/h (3 Bft)
27.08.2010 14:30 18,6 C 91 % 1000,1 hPa 0,0 mm 6,4 km/h (2 Bft) W-SW 247 0 min 3 UV-I 371 W/m 17,7 km/h (3 Bft)
27.08.2010 14:40 19,1 C 88 % 1000,0 hPa 0,0 mm 4,8 km/h (1 Bft) W 270 0 min 3 UV-I 381 W/m 16,1 km/h (3 Bft)
27.08.2010 14:50 19,4 C 87 % 999,9 hPa 0,0 mm 4,8 km/h (1 Bft) W-SW 247 0 min 3 UV-I 353 W/m 17,7 km/h (3 Bft)
27.08.2010 15:00 19,4 C 87 % 999,9 hPa 0,0 mm 4,8 km/h (1 Bft) W 270 0 min 2 UV-I 213 W/m 16,1 km/h (3 Bft)
27.08.2010 15:10 19,4 C 85 % 999,8 hPa 0,0 mm 9,7 km/h (2 Bft) W 270 0 min 3 UV-I 352 W/m 20,9 km/h (4 Bft)
27.08.2010 15:20 19,4 C 84 % 1000,1 hPa 0,0 mm 8,0 km/h (2 Bft) W-SW 247 0 min 1 UV-I 139 W/m 27,4 km/h (4 Bft)
27.08.2010 15:30 19,0 C 85 % 1000,3 hPa 0,3 mm 12,9 km/h (3 Bft) W 270 0 min 0 UV-I 49 W/m 33,8 km/h (5 Bft)
27.08.2010 15:40 18,1 C 89 % 1000,5 hPa 0,3 mm 8,0 km/h (2 Bft) W 270 0 min 2 UV-I 193 W/m 25,7 km/h (4 Bft)
27.08.2010 15:50 17,9 C 91 % 1000,7 hPa 0,0 mm 4,8 km/h (1 Bft) W 270 0 min 3 UV-I 325 W/m 17,7 km/h (3 Bft)
27.08.2010 16:00 18,0 C 88 % 1001,1 hPa 0,0 mm 8,0 km/h (2 Bft) W 270 0 min 2 UV-I 232 W/m 20,9 km/h (4 Bft)
27.08.2010 16:10 17,7 C 87 % 1001,4 hPa 0,0 mm 9,7 km/h (2 Bft) W 270 0 min 2 UV-I 297 W/m 25,7 km/h (4 Bft)
27.08.2010 16:20 17,6 C 87 % 1001,5 hPa 0,0 mm 9,7 km/h (2 Bft) W 270 0 min 2 UV-I 264 W/m 22,5 km/h (4 Bft)
27.08.2010 16:30 17,4 C 87 % 1001,6 hPa 0,0 mm 8,0 km/h (2 Bft) W-NW 292 0 min 2 UV-I 214 W/m 19,3 km/h (3 Bft)
27.08.2010 16:40 17,1 C 86 % 1002,0 hPa 0,0 mm 9,7 km/h (2 Bft) W-NW 292 0 min 1 UV-I 63 W/m 20,9 km/h (4 Bft)
27.08.2010 16:50 16,5 C 87 % 1002,2 hPa 0,0 mm 8,0 km/h (2 Bft) W-NW 292 0 min 0 UV-I 37 W/m 24,1 km/h (4 Bft)
27.08.2010 17:00 15,9 C 88 % 1002,3 hPa 0,0 mm 9,7 km/h (2 Bft) W-NW 292 0 min 1 UV-I 144 W/m 20,9 km/h (4 Bft)
27.08.2010 17:10 15,5 C 89 % 1002,6 hPa 0,0 mm 9,7 km/h (2 Bft) W-NW 292 0 min 1 UV-I 185 W/m 22,5 km/h (4 Bft)
27.08.2010 17:20 15,3 C 90 % 1002,9 hPa 0,0 mm 8,0 km/h (2 Bft) NW 315 0 min 1 UV-I 84 W/m 19,3 km/h (3 Bft)
27.08.2010 17:30 15,3 C 90 % 1003,1 hPa 0,0 mm 8,0 km/h (2 Bft) NW 315 0 min 1 UV-I 60 W/m 22,5 km/h (4 Bft)
27.08.2010 17:40 15,1 C 90 % 1003,1 hPa 0,0 mm 6,4 km/h (2 Bft) NW 315 0 min 0 UV-I 54 W/m 24,1 km/h (4 Bft)
27.08.2010 17:50 14,9 C 89 % 1003,4 hPa 0,0 mm 8,0 km/h (2 Bft) W-NW 292 0 min 0 UV-I 35 W/m 22,5 km/h (4 Bft)
27.08.2010 18:00 14,6 C 89 % 1003,7 hPa 0,0 mm 4,8 km/h (1 Bft) W-NW 292 0 min 0 UV-I 37 W/m 16,1 km/h (3 Bft)
27.08.2010 18:10 14,4 C 89 % 1003,8 hPa 0,0 mm 4,8 km/h (1 Bft) NW 315 0 min 0 UV-I 30 W/m 16,1 km/h (3 Bft)
27.08.2010 18:20 14,3 C 89 % 1004,1 hPa 0,0 mm 6,4 km/h (2 Bft) W-NW 292 0 min 0 UV-I 26 W/m 19,3 km/h (3 Bft)
27.08.2010 18:30 14,2 C 89 % 1004,5 hPa 0,0 mm 4,8 km/h (1 Bft) W-NW 292 0 min 0 UV-I 19 W/m 14,5 km/h (3 Bft)
27.08.2010 18:40 14,1 C 88 % 1004,6 hPa 0,0 mm 3,8 km/h (1 Bft) W 277 0 min 0 UV-I 12 W/m 9,7 km/h (2 Bft)
27.08.2010 18:50 13,9 C 89 % 1004,6 hPa 0,0 mm 4,3 km/h (1 Bft) NW 324 0 min 0 UV-I 7 W/m 17,7 km/h (3 Bft)
27.08.2010 19:00 13,8 C 89 % 1004,8 hPa 0,0 mm 3,2 km/h (1 Bft) NW 315 0 min 0 UV-I 14 W/m 8,0 km/h (2 Bft)
27.08.2010 19:10 13,7 C 90 % 1005,0 hPa 0,0 mm 3,2 km/h (1 Bft) W-NW 292 0 min 0 UV-I 11 W/m 16,1 km/h (3 Bft)
27.08.2010 19:20 13,6 C 90 % 1005,2 hPa 0,0 mm 4,4 km/h (1 Bft) N-NW 348 0 min 0 UV-I 0 W/m 17,7 km/h (3 Bft)
27.08.2010 19:30 13,5 C 91 % 1005,8 hPa 0,0 mm 5,3 km/h (1 Bft) W-NW 292 0 min 0 UV-I 0 W/m 16,1 km/h (3 Bft)
_ Min-Zeit 19:30 20:00 06:10 - 21:00 - - - - - 21:40
Minimum _ 13.5 C 82 % 998.7 hPa - 0.0 km/h (0 Bft) - - - - - 0.0 km/h (0 Bft)
_ Max-Zeit 20:00 08:50 19:30 04:00 15:30 - - 20:00 14:40 14:40 15:30
Maximum _ 20.6 C 95 % 1005.8 hPa 3.0 mm 12.9 km/h
W (3 Bft)
- - 0 min 3 UV-I 381 W/m 33.8 km/h
W-NW (5 Bft)
Durchschnitt _ 17.7 C 91 % 1001.1 hPa #18.8 mm 2.6 km/h (1 Bft) W-SW - #0 min. 1 UV-I 131 W/m 9.4 km/h (2 Bft)